Main page
METAR-TAF:

METAR-TAF

Airports :

Fairbanks International Airport

Fairbanks, Alaska, United States

latitude: 64-48-14N, longitude: 147-52-34W, elevation: 132 m

Current weather observation

The report was made 24 minutes ago, at 14:53 UTC
Wind 5 kt from the North
Temperature -11°C
Humidity 85%
Pressure 1002 hPa
Visibility: 16.1 km
Broken clouds at a height of 16000 ft

METAR: PAFA 091453Z 01005KT 10SM BKN160 M11/M13 A2960 RMK AO2 SLP036 T11061128 56039

Time: 06:17 (15:17 UTC)

Forecast

The report was made 3 hours and 57 minutes ago, at 11:20 UTC
Forecast valid from 09 at 12 UTC to 10 at 18 UTC
Wind 5 kt from the North/Northeast
Visibility: 10 km
Scattered clouds at a height of 1500 ft
Broken clouds at a height of 16000 ft
From 09 at 1400 UTC
Wind 8 kt from the Northeast
Visibility: 10 km
Broken clouds at a height of 9000 ft

TAF: PAFA 091120Z 0912/1018 03005KT P6SM SCT015 BKN160 FM091400 05008KT P6SM BKN090

Weather observations and forecasts of more than 4000 airports (METAR and TAF reports).

The available stations are represented by yellow and red dots on the map.

Hover mouse over dot to see the name of the station.

Then click to see weather observations and forecasts.

To change the map : click on the green buttons with a black cross to zoom in, on the green button with a dash to zoom out, or on the green arrows for adjacent maps.


METAR-TAF: